Time;durP1;ratioP1;P1;durP2;ratioP2;P2;SDS_P1;SDS_P2;PMS_P1;PMS_P2;Temp;Humidity;BMP_temperature;BMP_pressure;BME280_temperature;BME280_humidity;BME280_pressure;Samples;Min_cycle;Max_cycle;Signal;HPM_P1;HPM_P2
2023/01/02 00:01:50;;;;;;;16.90;3.50;;;;;;;;;;4975644;28;20120;-92
2023/01/02 00:04:16;;;;;;;11.68;3.80;;;;;;;;;;4984322;28;20034;-92
2023/01/02 00:06:42;;;;;;;12.65;3.55;;;;;;;;;;4984715;28;20157;-92
2023/01/02 00:09:08;;;;;;;10.75;3.65;;;;;;;;;;4986905;28;20030;-92
2023/01/02 00:11:34;;;;;;;13.82;4.32;;;;;;;;;;4997414;28;20040;-93
2023/01/02 00:14:00;;;;;;;16.13;3.75;;;;;;;;;;5007042;28;20508;-93
2023/01/02 00:16:26;;;;;;;15.88;4.35;;;;;;;;;;4979482;28;20390;-91
2023/01/02 00:18:52;;;;;;;14.77;5.05;;;;;;;;;;4989522;28;20532;-92
2023/01/02 00:21:18;;;;;;;11.55;4.90;;;;;;;;;;4991024;28;20033;-92
2023/01/02 00:23:45;;;;;;;13.52;4.70;;;;;;;;;;4977317;28;20435;-92
2023/01/02 00:26:11;;;;;;;18.85;6.00;;;;;;;;;;4979814;28;20486;-92
2023/01/02 00:28:37;;;;;;;15.82;6.10;;;;;;;;;;4991549;28;20464;-92
2023/01/02 00:31:07;;;;;;;16.88;6.32;;;;;;;;;;4978578;28;20069;-93
2023/01/02 00:33:33;;;;;;;16.67;6.25;;;;;;;;;;5000942;28;20509;-93
2023/01/02 00:36:02;;;;;;;14.05;5.78;;;;;;;;;;4995341;28;20073;-92
2023/01/02 00:38:28;;;;;;;15.98;5.75;;;;;;;;;;5005068;28;20535;-92
2023/01/02 00:40:54;;;;;;;10.18;5.28;;;;;;;;;;4975545;28;20034;-93
2023/01/02 00:43:20;;;;;;;14.10;5.65;;;;;;;;;;4981699;28;20076;-92
2023/01/02 00:45:53;;;;;;;15.10;5.32;;;;;;;;;;4968951;28;20494;-92
2023/01/02 00:48:19;;;;;;;10.10;4.85;;;;;;;;;;4994977;28;20034;-93
2023/01/02 00:50:46;;;;;;;9.15;5.20;;;;;;;;;;5009758;28;20431;-93
2023/01/02 00:53:12;;;;;;;14.52;5.18;;;;;;;;;;4987588;28;20038;-93
2023/01/02 00:55:38;;;;;;;9.18;4.93;;;;;;;;;;4997917;28;20036;-92
2023/01/02 00:58:04;;;;;;;7.57;3.95;;;;;;;;;;4976390;28;20045;-93
2023/01/02 01:00:30;;;;;;;8.38;4.60;;;;;;;;;;5004384;28;20033;-93
2023/01/02 01:03:00;;;;;;;9.20;4.70;;;;;;;;;;4987035;28;20082;-94
2023/01/02 01:05:27;;;;;;;13.07;4.28;;;;;;;;;;5001877;28;20069;-93
2023/01/02 01:07:53;;;;;;;11.60;4.75;;;;;;;;;;5002026;28;20057;-93
2023/01/02 01:10:19;;;;;;;9.93;4.80;;;;;;;;;;4971909;28;20062;-93
2023/01/02 01:12:45;;;;;;;9.90;4.60;;;;;;;;;;4989544;28;20038;-93
2023/01/02 01:15:11;;;;;;;10.80;4.80;;;;;;;;;;4977867;28;20061;-93
2023/01/02 01:17:38;;;;;;;7.65;3.78;;;;;;;;;;4976210;28;20029;-93
2023/01/02 01:20:04;;;;;;;9.93;4.53;;;;;;;;;;4992346;28;20022;-93
2023/01/02 01:22:30;;;;;;;11.20;4.45;;;;;;;;;;5006079;28;20030;-92
2023/01/02 01:24:56;;;;;;;8.07;3.65;;;;;;;;;;4981400;28;20029;-93
2023/01/02 01:27:22;;;;;;;12.13;4.07;;;;;;;;;;4993173;28;20142;-93
2023/01/02 01:29:48;;;;;;;8.38;2.90;;;;;;;;;;4983794;28;20066;-92
2023/01/02 01:32:14;;;;;;;7.07;3.13;;;;;;;;;;4987350;28;20042;-91
2023/01/02 01:34:40;;;;;;;8.90;3.22;;;;;;;;;;4971192;28;20034;-92
2023/01/02 01:37:06;;;;;;;9.38;3.45;;;;;;;;;;4967026;28;20675;-92
2023/01/02 01:39:32;;;;;;;11.40;4.32;;;;;;;;;;4978411;28;20078;-92
2023/01/02 01:41:59;;;;;;;8.45;4.15;;;;;;;;;;4968150;28;20041;-93
2023/01/02 01:44:42;;;;;;;9.68;4.07;;;;;;;;;;4979196;28;20533;-93
2023/01/02 01:47:21;;;;;;;15.48;5.53;;;;;;;;;;4969543;28;20034;-93
2023/01/02 01:49:49;;;;;;;15.43;7.50;;;;;;;;;;4965611;28;20045;-93
2023/01/02 01:52:17;;;;;;;5.90;3.15;;;;;;;;;;4983256;28;20034;-93
2023/01/02 01:55:00;;;;;;;11.35;5.38;;;;;;;;;;4970290;28;20034;-92
2023/01/02 01:57:32;;;;;;;10.75;4.90;;;;;;;;;;4984438;28;20041;-92
2023/01/02 01:59:59;;;;;;;12.30;4.85;;;;;;;;;;4995967;28;20084;-92
2023/01/02 02:02:26;;;;;;;19.83;4.57;;;;;;;;;;4972097;28;20034;-92
2023/01/02 02:04:52;;;;;;;10.50;5.05;;;;;;;;;;4953901;28;20034;-92
2023/01/02 02:07:19;;;;;;;11.38;4.50;;;;;;;;;;4983965;28;20038;-93
2023/01/02 02:09:48;;;;;;;10.27;5.78;;;;;;;;;;4974155;28;20038;-92
2023/01/02 02:12:16;;;;;;;15.55;5.90;;;;;;;;;;4979167;28;20034;-93
2023/01/02 02:14:42;;;;;;;9.55;4.82;;;;;;;;;;4969759;28;20049;-93
2023/01/02 02:17:27;;;;;;;11.60;5.10;;;;;;;;;;4984233;28;20081;-92
2023/01/02 02:19:59;;;;;;;12.68;5.57;;;;;;;;;;4968994;28;20030;-92
2023/01/02 02:22:41;;;;;;;11.32;4.68;;;;;;;;;;4979182;28;20069;-92
2023/01/02 02:25:18;;;;;;;14.20;5.43;;;;;;;;;;4978516;28;20402;-92
2023/01/02 02:28:03;;;;;;;12.95;5.50;;;;;;;;;;4971202;28;20038;-92
2023/01/02 02:30:29;;;;;;;13.75;5.88;;;;;;;;;;4978178;28;20030;-92
2023/01/02 02:33:04;;;;;;;12.80;4.78;;;;;;;;;;4978035;28;20037;-92
2023/01/02 02:35:47;;;;;;;12.48;6.03;;;;;;;;;;4978052;28;20042;-92
2023/01/02 02:38:13;;;;;;;8.55;4.57;;;;;;;;;;4995660;28;20046;-93
2023/01/02 02:40:39;;;;;;;11.63;5.30;;;;;;;;;;4996176;28;20102;-92
2023/01/02 02:43:05;;;;;;;11.32;5.47;;;;;;;;;;4983870;28;20068;-92
2023/01/02 02:45:37;;;;;;;11.00;5.15;;;;;;;;;;4995935;28;20053;-92
2023/01/02 02:48:42;;;;;;;8.73;4.78;;;;;;;;;;4991311;28;20030;-92
2023/01/02 02:51:14;;;;;;;12.75;5.45;;;;;;;;;;4924653;29;20031;-92
2023/01/02 02:53:42;;;;;;;11.02;5.57;;;;;;;;;;4912306;29;20043;-92
2023/01/02 02:56:09;;;;;;;8.00;4.93;;;;;;;;;;4962045;28;20041;-91
2023/01/02 02:58:35;;;;;;;13.60;5.53;;;;;;;;;;5000884;28;20034;-92
2023/01/02 03:01:03;;;;;;;13.80;5.63;;;;;;;;;;5005110;28;20041;-91
2023/01/02 03:03:29;;;;;;;11.23;5.90;;;;;;;;;;4998434;28;20045;-92
2023/01/02 03:06:07;;;;;;;10.30;4.35;;;;;;;;;;4987576;28;20045;-92
2023/01/02 03:08:40;;;;;;;9.70;5.78;;;;;;;;;;4990116;28;20605;-92
2023/01/02 03:11:06;;;;;;;5.90;3.00;;;;;;;;;;4996759;28;20042;-92
2023/01/02 03:13:36;;;;;;;13.93;5.22;;;;;;;;;;4969158;28;20762;-92
2023/01/02 03:16:16;;;;;;;12.25;5.57;;;;;;;;;;4981086;28;20030;-92
2023/01/02 03:18:42;;;;;;;17.90;5.72;;;;;;;;;;5005694;28;20097;-93
2023/01/02 03:21:21;;;;;;;14.20;6.60;;;;;;;;;;4992419;28;20110;-91
2023/01/02 03:23:48;;;;;;;15.88;6.18;;;;;;;;;;5004127;28;20041;-93
2023/01/02 03:26:16;;;;;;;14.45;6.15;;;;;;;;;;4973903;28;20496;-91
2023/01/02 03:28:44;;;;;;;11.50;4.55;;;;;;;;;;5006336;28;20034;-92
2023/01/02 03:31:13;;;;;;;8.32;3.47;;;;;;;;;;4987106;28;20029;-92
2023/01/02 03:33:42;;;;;;;16.50;6.20;;;;;;;;;;4983951;28;20037;-92
2023/01/02 03:36:12;;;;;;;17.52;6.78;;;;;;;;;;4988589;28;20491;-91
2023/01/02 03:38:44;;;;;;;13.57;5.18;;;;;;;;;;5002195;28;20676;-92
2023/01/02 03:41:18;;;;;;;17.23;6.35;;;;;;;;;;4991529;28;20029;-91
2023/01/02 03:43:45;;;;;;;13.38;6.80;;;;;;;;;;5006076;28;20034;-93
2023/01/02 03:46:27;;;;;;;16.15;6.70;;;;;;;;;;4994804;28;20035;-91
2023/01/02 03:48:56;;;;;;;14.95;6.28;;;;;;;;;;5002003;28;20042;-91
2023/01/02 03:51:22;;;;;;;18.25;7.20;;;;;;;;;;4989804;28;20073;-92
2023/01/02 03:53:49;;;;;;;26.10;10.43;;;;;;;;;;4970700;28;20030;-92
2023/01/02 03:56:15;;;;;;;19.02;7.45;;;;;;;;;;4976515;28;20707;-92
2023/01/02 03:58:48;;;;;;;4.85;3.40;;;;;;;;;;5008766;28;20064;-92
2023/01/02 04:01:17;;;;;;;20.33;7.60;;;;;;;;;;5001813;28;20037;-92
2023/01/02 04:03:48;;;;;;;23.42;7.40;;;;;;;;;;5002162;28;20049;-92
2023/01/02 04:06:17;;;;;;;29.52;9.52;;;;;;;;;;4994048;28;20061;-92
2023/01/02 04:08:51;;;;;;;17.75;8.45;;;;;;;;;;5009036;28;20072;-93
2023/01/02 04:11:20;;;;;;;29.27;9.35;;;;;;;;;;5002762;28;20069;-92
2023/01/02 04:13:48;;;;;;;31.92;8.98;;;;;;;;;;5004270;28;20765;-93
2023/01/02 04:16:22;;;;;;;;;;;;;;;;;;4999054;28;20485;-92
2023/01/02 04:18:51;;;;;;;12.70;5.63;;;;;;;;;;5006758;28;19920;-92
2023/01/02 04:21:21;;;;;;;19.55;8.02;;;;;;;;;;5003661;28;20093;-92
2023/01/02 04:23:52;;;;;;;23.63;9.60;;;;;;;;;;5004891;28;20089;-91
2023/01/02 04:26:21;;;;;;;15.82;7.18;;;;;;;;;;4986795;28;20034;-92
2023/01/02 04:28:47;;;;;;;26.45;8.27;;;;;;;;;;5005565;28;20519;-92
2023/01/02 04:31:27;;;;;;;24.67;7.47;;;;;;;;;;4985942;28;20038;-92
2023/01/02 04:33:58;;;;;;;22.13;8.20;;;;;;;;;;5004517;28;20033;-92
2023/01/02 04:36:31;;;;;;;29.70;10.25;;;;;;;;;;5010946;28;20041;-93
2023/01/02 04:39:04;;;;;;;24.38;8.27;;;;;;;;;;4988881;28;20041;-93
2023/01/02 04:41:31;;;;;;;27.15;9.82;;;;;;;;;;4993106;28;20434;-91
2023/01/02 04:43:57;;;;;;;20.00;9.18;;;;;;;;;;5003691;28;20076;-93
2023/01/02 04:46:23;;;;;;;26.15;8.63;;;;;;;;;;4980406;28;20034;-93
2023/01/02 04:48:50;;;;;;;22.27;7.72;;;;;;;;;;4989915;28;20060;-92
2023/01/02 04:51:18;;;;;;;20.90;7.75;;;;;;;;;;4984697;28;20044;-93
2023/01/02 04:53:47;;;;;;;23.13;8.07;;;;;;;;;;4975953;28;20076;-93
2023/01/02 04:56:13;;;;;;;21.33;9.00;;;;;;;;;;5000628;28;20028;-92
2023/01/02 04:58:40;;;;;;;19.30;8.35;;;;;;;;;;4978265;28;20080;-93
2023/01/02 05:01:10;;;;;;;25.08;9.55;;;;;;;;;;4988119;28;20532;-93
2023/01/02 05:03:43;;;;;;;21.48;8.20;;;;;;;;;;5006669;28;20048;-92
2023/01/02 05:06:09;;;;;;;25.58;7.75;;;;;;;;;;4976604;28;20042;-92
2023/01/02 05:08:37;;;;;;;11.90;6.47;;;;;;;;;;5005216;28;20096;-92
2023/01/02 05:11:07;;;;;;;12.73;6.78;;;;;;;;;;4991775;28;20042;-92
2023/01/02 05:13:33;;;;;;;11.25;4.95;;;;;;;;;;5001503;28;20033;-92
2023/01/02 05:15:59;;;;;;;11.80;6.55;;;;;;;;;;5004690;28;20022;-92
2023/01/02 05:18:27;;;;;;;12.23;5.85;;;;;;;;;;5003199;28;20022;-93
2023/01/02 05:20:53;;;;;;;12.95;5.57;;;;;;;;;;4986259;28;20390;-93
2023/01/02 05:26:09;;;;;;;14.45;4.07;;;;;;;;;;4990035;28;20045;-92
2023/01/02 05:28:35;;;;;;;12.68;5.72;;;;;;;;;;5005573;28;20533;-94
2023/01/02 05:31:04;;;;;;;10.20;5.20;;;;;;;;;;4975220;28;20038;-93
2023/01/02 05:33:30;;;;;;;12.38;5.82;;;;;;;;;;4976095;28;20049;-93
2023/01/02 05:35:56;;;;;;;16.42;5.32;;;;;;;;;;4999039;28;20513;-92
2023/01/02 05:38:22;;;;;;;10.98;5.65;;;;;;;;;;4974755;28;20053;-93
2023/01/02 05:40:48;;;;;;;12.52;5.63;;;;;;;;;;4975307;28;20045;-93
2023/01/02 05:43:14;;;;;;;9.90;4.90;;;;;;;;;;5003048;28;20041;-93
2023/01/02 05:45:40;;;;;;;10.32;5.00;;;;;;;;;;4973400;28;20045;-93
2023/01/02 05:48:06;;;;;;;11.52;5.03;;;;;;;;;;4985239;28;20044;-92
2023/01/02 05:50:32;;;;;;;8.57;4.78;;;;;;;;;;4979369;28;20037;-93
2023/01/02 05:52:58;;;;;;;10.05;5.40;;;;;;;;;;4971666;28;20172;-92
2023/01/02 05:55:24;;;;;;;11.63;5.50;;;;;;;;;;5000736;28;20038;-93
2023/01/02 05:57:55;;;;;;;15.95;5.28;;;;;;;;;;4995604;28;20521;-92
2023/01/02 06:00:21;;;;;;;10.00;5.43;;;;;;;;;;5002206;28;20066;-92
2023/01/02 06:02:47;;;;;;;10.10;4.75;;;;;;;;;;4986407;28;20041;-92
2023/01/02 06:05:13;;;;;;;7.88;4.55;;;;;;;;;;4967564;28;21165;-92
2023/01/02 06:07:39;;;;;;;11.25;5.03;;;;;;;;;;4985156;28;20050;-92
2023/01/02 06:10:05;;;;;;;11.40;4.57;;;;;;;;;;5005816;28;20026;-92
2023/01/02 06:12:31;;;;;;;10.50;4.25;;;;;;;;;;4985092;28;20038;-92
2023/01/02 06:14:57;;;;;;;10.40;4.93;;;;;;;;;;4990816;28;20173;-93
2023/01/02 06:17:23;;;;;;;13.23;5.07;;;;;;;;;;4971783;28;20040;-93
2023/01/02 06:19:49;;;;;;;9.75;5.15;;;;;;;;;;4977534;28;20111;-92
2023/01/02 06:22:15;;;;;;;8.88;3.60;;;;;;;;;;4984725;28;20045;-93
2023/01/02 06:24:41;;;;;;;10.55;4.82;;;;;;;;;;4975008;28;20037;-92
2023/01/02 06:27:07;;;;;;;12.00;4.50;;;;;;;;;;4986644;28;20042;-92
2023/01/02 06:29:33;;;;;;;3.35;2.30;;;;;;;;;;4972456;28;20036;-93
2023/01/02 06:31:59;;;;;;;4.20;2.13;;;;;;;;;;4991419;28;20044;-93
2023/01/02 06:34:25;;;;;;;9.38;3.47;;;;;;;;;;4972254;28;20027;-92
2023/01/02 06:36:51;;;;;;;6.05;3.00;;;;;;;;;;4990220;28;20093;-94
2023/01/02 06:39:17;;;;;;;7.78;3.63;;;;;;;;;;4971064;28;20030;-91
2023/01/02 06:41:43;;;;;;;6.65;2.90;;;;;;;;;;4982889;28;20121;-92
2023/01/02 06:44:12;;;;;;;6.85;2.22;;;;;;;;;;4973023;28;20037;-92
2023/01/02 06:46:38;;;;;;;7.32;2.80;;;;;;;;;;4996648;28;20057;-93
2023/01/02 06:49:04;;;;;;;5.15;2.88;;;;;;;;;;4989345;28;20397;-93
2023/01/02 06:51:30;;;;;;;6.18;3.22;;;;;;;;;;4972351;28;20395;-92
2023/01/02 06:53:56;;;;;;;6.97;3.45;;;;;;;;;;4989323;28;20117;-91
2023/01/02 06:56:23;;;;;;;6.07;3.35;;;;;;;;;;4970290;28;20035;-92
2023/01/02 06:58:49;;;;;;;4.28;2.72;;;;;;;;;;4972390;28;20059;-91
2023/01/02 07:01:18;;;;;;;7.72;3.00;;;;;;;;;;4983986;28;20038;-92
2023/01/02 07:03:44;;;;;;;9.27;4.45;;;;;;;;;;5004286;28;20038;-92
2023/01/02 07:06:12;;;;;;;5.82;3.53;;;;;;;;;;4974261;28;20491;-91
2023/01/02 07:08:38;;;;;;;5.70;3.10;;;;;;;;;;4996909;28;20121;-92
2023/01/02 07:11:09;;;;;;;8.98;4.75;;;;;;;;;;4986080;28;20053;-92
2023/01/02 07:13:35;;;;;;;10.77;4.03;;;;;;;;;;4999269;28;20466;-93
2023/01/02 07:16:02;;;;;;;8.98;3.58;;;;;;;;;;4999533;28;20116;-92
2023/01/02 07:18:28;;;;;;;15.10;4.65;;;;;;;;;;4970204;28;20088;-93
2023/01/02 07:20:54;;;;;;;6.85;3.13;;;;;;;;;;4972168;28;20034;-92
2023/01/02 07:23:20;;;;;;;12.32;4.05;;;;;;;;;;4973210;28;20485;-92
2023/01/02 07:25:51;;;;;;;8.23;2.45;;;;;;;;;;4972642;28;20406;-92
2023/01/02 07:28:17;;;;;;;10.77;2.85;;;;;;;;;;4991309;28;20591;-92
2023/01/02 07:30:43;;;;;;;13.77;3.53;;;;;;;;;;4976103;28;23043;-92
2023/01/02 07:33:09;;;;;;;8.77;2.90;;;;;;;;;;4978333;28;20474;-92
2023/01/02 07:35:35;;;;;;;10.77;1.77;;;;;;;;;;4976009;28;20033;-93
2023/01/02 07:38:01;;;;;;;9.73;2.00;;;;;;;;;;4971346;28;20046;-92
2023/01/02 07:40:27;;;;;;;7.72;1.70;;;;;;;;;;4990121;28;20099;-92
2023/01/02 07:42:54;;;;;;;7.28;1.50;;;;;;;;;;4992440;28;20675;-92
2023/01/02 07:45:20;;;;;;;2.15;0.65;;;;;;;;;;4988832;28;20041;-91
2023/01/02 07:47:46;;;;;;;8.77;1.35;;;;;;;;;;5002517;28;20042;-92
2023/01/02 07:50:12;;;;;;;1.20;0.52;;;;;;;;;;4977856;28;20034;-92
2023/01/02 07:52:38;;;;;;;2.90;0.90;;;;;;;;;;4983799;28;20101;-93
2023/01/02 07:55:04;;;;;;;7.03;1.05;;;;;;;;;;4972115;28;20030;-92
2023/01/02 07:57:30;;;;;;;2.30;0.98;;;;;;;;;;5002393;28;20033;-92
2023/01/02 07:59:56;;;;;;;3.85;1.30;;;;;;;;;;4978271;28;20393;-92
2023/01/02 08:02:22;;;;;;;1.77;0.63;;;;;;;;;;4972249;28;20153;-91
2023/01/02 08:04:49;;;;;;;4.60;0.75;;;;;;;;;;4971824;28;20054;-91
2023/01/02 08:07:20;;;;;;;8.85;1.45;;;;;;;;;;4976576;28;21926;-92
2023/01/02 08:09:46;;;;;;;2.53;1.05;;;;;;;;;;5000231;28;20042;-92
2023/01/02 08:12:12;;;;;;;9.40;1.10;;;;;;;;;;5004019;28;20022;-91
2023/01/02 08:14:38;;;;;;;4.03;1.23;;;;;;;;;;4988969;28;20172;-92
2023/01/02 08:17:07;;;;;;;6.35;1.25;;;;;;;;;;4973923;28;20034;-91
2023/01/02 08:19:33;;;;;;;5.20;0.70;;;;;;;;;;4975376;28;20061;-92
2023/01/02 08:21:59;;;;;;;6.43;0.80;;;;;;;;;;4975051;28;20033;-91
2023/01/02 08:24:25;;;;;;;5.00;1.08;;;;;;;;;;4977071;28;20040;-91
2023/01/02 08:26:51;;;;;;;5.57;1.50;;;;;;;;;;4989456;28;20026;-91
2023/01/02 08:29:17;;;;;;;6.45;1.30;;;;;;;;;;4972491;28;20095;-91
2023/01/02 08:31:44;;;;;;;1.35;1.02;;;;;;;;;;4980798;28;20054;-92
2023/01/02 08:34:13;;;;;;;11.50;1.65;;;;;;;;;;4973103;28;20401;-91
2023/01/02 08:36:39;;;;;;;3.05;1.40;;;;;;;;;;4970324;28;20033;-91
2023/01/02 08:39:05;;;;;;;6.05;1.17;;;;;;;;;;4969667;28;20613;-92
2023/01/02 08:41:35;;;;;;;5.80;1.65;;;;;;;;;;4984659;28;20036;-92
2023/01/02 08:44:01;;;;;;;8.25;1.63;;;;;;;;;;5001485;28;20052;-93
2023/01/02 08:46:28;;;;;;;5.03;1.55;;;;;;;;;;4973757;28;20061;-91
2023/01/02 08:48:54;;;;;;;8.35;1.50;;;;;;;;;;4975241;28;20517;-93
2023/01/02 08:51:20;;;;;;;2.67;1.60;;;;;;;;;;4990002;28;20125;-93
2023/01/02 08:53:46;;;;;;;4.97;1.17;;;;;;;;;;5008401;28;20069;-92
2023/01/02 08:56:17;;;;;;;3.65;1.55;;;;;;;;;;4970993;28;20037;-92
2023/01/02 08:58:45;;;;;;;4.47;1.38;;;;;;;;;;4969136;28;20100;-92
2023/01/02 09:01:14;;;;;;;7.97;1.58;;;;;;;;;;4971335;28;20045;-92
2023/01/02 09:03:40;;;;;;;3.35;0.88;;;;;;;;;;4999567;28;20043;-92
2023/01/02 09:06:06;;;;;;;7.30;1.42;;;;;;;;;;4983969;28;20030;-92
2023/01/02 09:08:32;;;;;;;2.80;1.15;;;;;;;;;;4970773;28;20060;-92
2023/01/02 09:10:58;;;;;;;6.32;1.65;;;;;;;;;;4974503;28;20099;-92
2023/01/02 09:13:26;;;;;;;2.40;1.00;;;;;;;;;;4997407;28;20045;-92
2023/01/02 09:15:53;;;;;;;3.90;1.60;;;;;;;;;;4976365;28;20048;-92
2023/01/02 09:18:19;;;;;;;4.00;1.67;;;;;;;;;;4984761;28;20022;-92
2023/01/02 09:20:45;;;;;;;5.70;1.17;;;;;;;;;;4984154;28;20045;-93
2023/01/02 09:23:13;;;;;;;8.27;1.75;;;;;;;;;;4974014;28;20040;-92
2023/01/02 09:25:40;;;;;;;11.15;1.88;;;;;;;;;;5001655;28;20496;-92
2023/01/02 09:28:06;;;;;;;7.43;1.38;;;;;;;;;;4999748;28;20037;-92
2023/01/02 09:30:32;;;;;;;5.65;1.75;;;;;;;;;;4974854;28;20176;-92
2023/01/02 09:32:58;;;;;;;4.45;1.60;;;;;;;;;;5000602;28;20044;-92
2023/01/02 09:35:33;;;;;;;5.00;1.75;;;;;;;;;;4972012;28;20030;-91
2023/01/02 09:37:59;;;;;;;8.20;1.75;;;;;;;;;;5004458;28;20546;-92
2023/01/02 09:40:25;;;;;;;3.85;1.67;;;;;;;;;;4998382;28;20474;-92
2023/01/02 09:42:52;;;;;;;4.18;1.73;;;;;;;;;;4974332;28;20557;-92
2023/01/02 09:45:28;;;;;;;2.47;1.50;;;;;;;;;;4973617;28;20572;-92
2023/01/02 09:47:55;;;;;;;12.43;4.40;;;;;;;;;;4993701;28;20030;-93
2023/01/02 09:50:26;;;;;;;10.68;2.75;;;;;;;;;;5004691;28;20032;-92
2023/01/02 09:52:57;;;;;;;8.57;3.08;;;;;;;;;;4986168;28;20033;-93
2023/01/02 09:55:44;;;;;;;12.60;4.00;;;;;;;;;;4992156;28;20484;-92
2023/01/02 09:58:35;;;;;;;6.65;1.75;;;;;;;;;;4992075;28;20109;-93
2023/01/02 10:01:05;;;;;;;4.03;2.15;;;;;;;;;;4986612;28;20029;-93
2023/01/02 10:03:31;;;;;;;8.02;2.08;;;;;;;;;;4988149;28;20564;-93
2023/01/02 10:06:00;;;;;;;5.15;1.95;;;;;;;;;;4986703;28;20164;-92
2023/01/02 10:08:35;;;;;;;11.52;2.55;;;;;;;;;;5001545;28;20470;-93
2023/01/02 10:11:15;;;;;;;2.92;1.55;;;;;;;;;;5000487;28;20069;-93
2023/01/02 10:13:41;;;;;;;4.97;2.20;;;;;;;;;;5008249;28;20087;-92
2023/01/02 10:16:18;;;;;;;3.47;1.88;;;;;;;;;;5001713;28;20034;-93
2023/01/02 10:18:46;;;;;;;5.55;1.77;;;;;;;;;;5004397;28;20030;-92
2023/01/02 10:21:20;;;;;;;2.25;1.20;;;;;;;;;;4998740;28;20106;-92
2023/01/02 10:23:49;;;;;;;3.80;1.60;;;;;;;;;;4985235;28;20064;-91
2023/01/02 10:26:17;;;;;;;7.45;1.63;;;;;;;;;;5003753;28;20061;-92
2023/01/02 10:28:56;;;;;;;2.22;1.45;;;;;;;;;;4967919;28;20722;-92
2023/01/02 10:31:22;;;;;;;9.43;1.98;;;;;;;;;;5005096;28;20053;-91
2023/01/02 10:33:59;;;;;;;12.98;0.85;;;;;;;;;;5004527;28;20098;-92
2023/01/02 10:36:35;;;;;;;5.53;1.88;;;;;;;;;;4989829;28;20053;-92
2023/01/02 10:39:21;;;;;;;2.67;1.58;;;;;;;;;;4990788;28;20080;-92
2023/01/02 10:41:52;;;;;;;5.03;1.63;;;;;;;;;;5000689;28;20042;-93
2023/01/02 10:44:26;;;;;;;2.67;1.50;;;;;;;;;;4988958;28;20537;-93
2023/01/02 10:47:15;;;;;;;2.85;1.70;;;;;;;;;;4985377;28;20092;-92
2023/01/02 10:49:45;;;;;;;7.53;1.80;;;;;;;;;;4994807;28;20608;-93
2023/01/02 10:52:32;;;;;;;8.70;1.80;;;;;;;;;;4996956;28;20029;-92
2023/01/02 10:54:59;;;;;;;4.22;1.95;;;;;;;;;;4978930;28;20026;-92
2023/01/02 10:57:33;;;;;;;6.38;2.13;;;;;;;;;;4992700;28;20501;-92
2023/01/02 11:00:07;;;;;;;8.63;2.90;;;;;;;;;;4983937;28;20034;-93
2023/01/02 11:02:39;;;;;;;8.38;2.40;;;;;;;;;;4972598;28;22975;-93
2023/01/02 11:05:10;;;;;;;2.90;1.70;;;;;;;;;;4997429;28;20025;-93
2023/01/02 11:07:38;;;;;;;4.80;1.90;;;;;;;;;;4985999;28;20023;-93
2023/01/02 11:10:05;;;;;;;3.83;1.67;;;;;;;;;;4994994;28;20045;-93
2023/01/02 11:12:31;;;;;;;3.20;1.33;;;;;;;;;;4968491;28;20145;-93
2023/01/02 11:15:11;;;;;;;3.47;1.63;;;;;;;;;;4989751;28;20585;-93
2023/01/02 11:17:43;;;;;;;4.43;1.40;;;;;;;;;;4988990;28;20454;-93
2023/01/02 11:20:31;;;;;;;7.38;1.55;;;;;;;;;;4963744;28;20050;-93
2023/01/02 11:23:01;;;;;;;8.82;2.13;;;;;;;;;;4994655;28;20644;-92
2023/01/02 11:25:38;;;;;;;10.13;1.48;;;;;;;;;;4993877;28;20030;-93
2023/01/02 11:28:14;;;;;;;5.32;1.70;;;;;;;;;;4982182;28;20034;-94
2023/01/02 11:30:40;;;;;;;;;;;;;;;;;;4977730;28;20055;-94
2023/01/02 11:33:09;;;;;;;1.70;0.75;;;;;;;;;;4977399;28;19921;-93
2023/01/02 11:35:37;;;;;;;2.75;1.10;;;;;;;;;;4986039;28;20038;-94
2023/01/02 11:38:36;;;;;;;5.63;1.40;;;;;;;;;;4986241;28;20046;-93
2023/01/02 11:41:02;;;;;;;10.35;2.67;;;;;;;;;;4976344;28;20042;-93
2023/01/02 11:43:48;;;;;;;4.90;1.58;;;;;;;;;;4978279;28;20445;-93
2023/01/02 11:46:21;;;;;;;9.45;1.85;;;;;;;;;;4995831;28;20026;-93
2023/01/02 11:48:47;;;;;;;3.40;1.23;;;;;;;;;;4996881;28;20586;-95
2023/01/02 11:51:18;;;;;;;8.80;1.85;;;;;;;;;;4985481;28;20068;-93
2023/01/02 11:53:46;;;;;;;9.32;1.80;;;;;;;;;;4986621;28;20066;-93
2023/01/02 11:56:38;;;;;;;6.03;1.90;;;;;;;;;;4987184;28;20034;-94
2023/01/02 11:59:11;;;;;;;10.70;1.42;;;;;;;;;;4958579;28;20038;-93
2023/01/02 12:01:45;;;;;;;2.08;1.25;;;;;;;;;;4993082;28;20027;-93
2023/01/02 12:04:12;;;;;;;4.18;1.48;;;;;;;;;;4975719;28;20057;-92
2023/01/02 12:06:38;;;;;;;5.20;1.40;;;;;;;;;;4999015;28;20124;-92
2023/01/02 12:09:13;;;;;;;7.20;1.70;;;;;;;;;;4982943;28;20576;-94
2023/01/02 12:12:00;;;;;;;0.85;0.57;;;;;;;;;;4981070;28;20033;-94
2023/01/02 12:14:26;;;;;;;3.72;1.27;;;;;;;;;;4983945;28;20069;-93
2023/01/02 12:17:07;;;;;;;4.35;0.90;;;;;;;;;;4998991;28;20019;-92
2023/01/02 12:19:39;;;;;;;3.58;1.35;;;;;;;;;;5002359;28;20030;-93
2023/01/02 12:22:12;;;;;;;4.65;2.03;;;;;;;;;;4994588;28;20031;-94
2023/01/02 12:24:58;;;;;;;1.08;0.82;;;;;;;;;;5002386;28;20018;-92
2023/01/02 12:27:24;;;;;;;7.85;1.52;;;;;;;;;;4957678;28;20375;-93
2023/01/02 12:30:00;;;;;;;5.18;1.17;;;;;;;;;;4992184;28;20084;-93
2023/01/02 12:32:45;;;;;;;11.20;1.80;;;;;;;;;;4999279;28;20038;-93
2023/01/02 12:35:19;;;;;;;5.13;1.58;;;;;;;;;;4997077;28;20034;-93
2023/01/02 12:37:48;;;;;;;9.65;1.42;;;;;;;;;;4997394;28;20050;-93
2023/01/02 12:40:28;;;;;;;5.22;1.60;;;;;;;;;;4980431;28;20030;-93
2023/01/02 12:43:13;;;;;;;7.22;1.60;;;;;;;;;;4993602;28;20494;-93
2023/01/02 12:46:02;;;;;;;7.75;1.77;;;;;;;;;;5000196;28;20029;-93
2023/01/02 12:48:45;;;;;;;24.85;3.70;;;;;;;;;;4977234;28;20076;-92
2023/01/02 12:51:23;;;;;;;12.35;1.77;;;;;;;;;;4984183;28;20393;-93
2023/01/02 12:53:53;;;;;;;9.55;1.58;;;;;;;;;;4997577;28;20485;-92
2023/01/02 12:56:34;;;;;;;5.20;1.60;;;;;;;;;;4999280;28;20031;-93
2023/01/02 12:59:14;;;;;;;9.40;3.10;;;;;;;;;;4996310;28;20483;-93
2023/01/02 13:01:57;;;;;;;10.27;1.70;;;;;;;;;;4994996;28;20406;-92
2023/01/02 13:04:32;;;;;;;12.05;1.77;;;;;;;;;;5004307;28;20083;-93
2023/01/02 13:07:03;;;;;;;9.67;1.80;;;;;;;;;;4988592;28;20141;-93
2023/01/02 13:09:37;;;;;;;13.00;2.72;;;;;;;;;;4994415;28;20659;-93
2023/01/02 13:12:03;;;;;;;11.85;2.10;;;;;;;;;;5001082;28;20044;-93
2023/01/02 13:14:32;;;;;;;8.70;1.85;;;;;;;;;;5002383;28;20033;-93
2023/01/02 13:17:06;;;;;;;9.90;1.67;;;;;;;;;;5000842;28;20500;-91
2023/01/02 13:19:51;;;;;;;7.40;1.73;;;;;;;;;;4997687;28;20024;-93
2023/01/02 13:22:36;;;;;;;5.03;1.52;;;;;;;;;;4994097;28;20037;-93
2023/01/02 13:25:03;;;;;;;6.30;1.60;;;;;;;;;;4998322;28;20216;-94
2023/01/02 13:27:31;;;;;;;10.32;2.05;;;;;;;;;;4980277;28;20072;-94
2023/01/02 13:30:01;;;;;;;9.57;1.63;;;;;;;;;;4972526;28;20502;-94
2023/01/02 13:32:28;;;;;;;11.98;2.17;;;;;;;;;;4980678;28;20030;-94
2023/01/02 13:34:55;;;;;;;21.70;2.83;;;;;;;;;;4986685;28;20486;-94
2023/01/02 13:37:23;;;;;;;12.75;1.05;;;;;;;;;;5002988;28;20014;-94
2023/01/02 13:40:02;;;;;;;15.77;2.38;;;;;;;;;;4990037;28;20549;-93
2023/01/02 13:45:21;;;;;;;9.13;1.55;;;;;;;;;;4990482;28;20041;-92
2023/01/02 13:47:49;;;;;;;7.47;1.67;;;;;;;;;;4999968;28;20030;-92
2023/01/02 13:50:19;;;;;;;10.75;2.15;;;;;;;;;;4994118;28;20513;-92
2023/01/02 13:53:04;;;;;;;10.10;1.95;;;;;;;;;;5000479;28;20027;-93
2023/01/02 13:55:31;;;;;;;12.35;1.50;;;;;;;;;;4985288;28;20359;-92
2023/01/02 13:58:14;;;;;;;10.27;2.67;;;;;;;;;;4983666;28;20040;-91
2023/01/02 14:00:41;;;;;;;7.10;1.77;;;;;;;;;;4982106;28;20030;-92
2023/01/02 14:03:20;;;;;;;64.15;3.45;;;;;;;;;;4986474;28;20030;-92
2023/01/02 14:05:58;;;;;;;14.10;2.13;;;;;;;;;;5002259;28;20045;-91
2023/01/02 14:08:30;;;;;;;13.35;3.38;;;;;;;;;;4988228;28;20113;-91
2023/01/02 14:10:58;;;;;;;12.95;3.20;;;;;;;;;;5005033;28;20064;-91
2023/01/02 14:13:28;;;;;;;15.45;2.42;;;;;;;;;;5005893;28;20066;-92
2023/01/02 14:16:13;;;;;;;9.20;1.60;;;;;;;;;;5004123;28;20653;-92
2023/01/02 14:18:39;;;;;;;10.07;2.22;;;;;;;;;;4994731;28;20031;-92
2023/01/02 14:21:06;;;;;;;18.40;2.22;;;;;;;;;;4981027;28;20072;-91
2023/01/02 14:23:42;;;;;;;5.85;1.63;;;;;;;;;;5002196;28;20057;-91
2023/01/02 14:26:32;;;;;;;7.03;1.85;;;;;;;;;;4994163;28;20026;-91
2023/01/02 14:28:59;;;;;;;6.03;1.45;;;;;;;;;;4991118;28;20441;-90
2023/01/02 14:31:32;;;;;;;10.52;2.03;;;;;;;;;;4981251;28;20567;-92
2023/01/02 14:33:59;;;;;;;10.38;2.17;;;;;;;;;;4985703;28;20501;-92
2023/01/02 14:36:41;;;;;;;15.38;1.95;;;;;;;;;;4968263;28;20458;-91
2023/01/02 14:39:10;;;;;;;14.13;2.13;;;;;;;;;;4996851;28;20053;-91
2023/01/02 14:44:44;;;;;;;25.70;2.70;;;;;;;;;;5004707;28;20121;-91
2023/01/02 14:47:13;;;;;;;24.52;2.95;;;;;;;;;;4993169;28;20408;-91
2023/01/02 14:49:39;;;;;;;9.55;2.60;;;;;;;;;;4999832;28;20317;-91
2023/01/02 14:52:07;;;;;;;13.18;2.70;;;;;;;;;;4986585;28;20041;-91
2023/01/02 14:54:40;;;;;;;14.15;2.33;;;;;;;;;;5002686;28;20018;-91
2023/01/02 14:57:12;;;;;;;3.17;1.17;;;;;;;;;;4990710;28;20521;-92
2023/01/02 14:59:41;;;;;;;16.25;2.38;;;;;;;;;;4995393;28;20037;-92
2023/01/02 15:02:15;;;;;;;8.18;2.75;;;;;;;;;;4989558;28;20088;-91
2023/01/02 15:05:05;;;;;;;7.90;1.88;;;;;;;;;;4997956;28;20457;-92